sensor_id;sensor_type;location;lat;lon;timestamp;temperature;humidity
11744;DHT22;5929;51.906;7.674;2022-07-04T00:02:22;17.20;99.90
11744;DHT22;5929;51.906;7.674;2022-07-04T00:04:49;17.20;99.90
11744;DHT22;5929;51.906;7.674;2022-07-04T00:07:16;17.20;99.90
11744;DHT22;5929;51.906;7.674;2022-07-04T00:09:42;17.30;99.90
11744;DHT22;5929;51.906;7.674;2022-07-04T00:12:09;17.20;99.90
11744;DHT22;5929;51.906;7.674;2022-07-04T00:14:36;17.20;99.90
11744;DHT22;5929;51.906;7.674;2022-07-04T00:17:03;17.20;99.90
11744;DHT22;5929;51.906;7.674;2022-07-04T00:19:32;17.20;99.90
11744;DHT22;5929;51.906;7.674;2022-07-04T00:21:59;17.20;99.90
11744;DHT22;5929;51.906;7.674;2022-07-04T00:24:25;17.20;99.90
11744;DHT22;5929;51.906;7.674;2022-07-04T00:26:54;17.10;99.90
11744;DHT22;5929;51.906;7.674;2022-07-04T00:29:21;17.10;99.90
11744;DHT22;5929;51.906;7.674;2022-07-04T00:31:48;17.00;99.90
11744;DHT22;5929;51.906;7.674;2022-07-04T00:34:15;17.00;99.90
11744;DHT22;5929;51.906;7.674;2022-07-04T00:36:43;17.00;99.90
11744;DHT22;5929;51.906;7.674;2022-07-04T00:39:12;17.00;99.90
11744;DHT22;5929;51.906;7.674;2022-07-04T00:41:39;17.00;99.90
11744;DHT22;5929;51.906;7.674;2022-07-04T00:44:08;16.90;99.90
11744;DHT22;5929;51.906;7.674;2022-07-04T00:46:38;17.00;99.90
11744;DHT22;5929;51.906;7.674;2022-07-04T00:49:06;17.10;99.90
11744;DHT22;5929;51.906;7.674;2022-07-04T00:51:33;17.00;99.90
11744;DHT22;5929;51.906;7.674;2022-07-04T00:54:01;17.00;99.90
11744;DHT22;5929;51.906;7.674;2022-07-04T00:56:29;17.00;99.90
11744;DHT22;5929;51.906;7.674;2022-07-04T00:58:56;16.90;99.90
11744;DHT22;5929;51.906;7.674;2022-07-04T01:01:26;16.90;99.90
11744;DHT22;5929;51.906;7.674;2022-07-04T01:03:54;16.80;99.90
11744;DHT22;5929;51.906;7.674;2022-07-04T01:06:21;16.70;99.90
11744;DHT22;5929;51.906;7.674;2022-07-04T01:08:48;16.70;99.90
11744;DHT22;5929;51.906;7.674;2022-07-04T01:11:17;16.70;99.90
11744;DHT22;5929;51.906;7.674;2022-07-04T01:13:44;16.60;99.90
11744;DHT22;5929;51.906;7.674;2022-07-04T01:16:11;16.50;99.90
11744;DHT22;5929;51.906;7.674;2022-07-04T01:18:39;16.50;99.90
11744;DHT22;5929;51.906;7.674;2022-07-04T01:21:07;16.50;99.90
11744;DHT22;5929;51.906;7.674;2022-07-04T01:23:37;16.50;99.90
11744;DHT22;5929;51.906;7.674;2022-07-04T01:26:04;16.30;99.90
11744;DHT22;5929;51.906;7.674;2022-07-04T01:28:31;16.30;99.90
11744;DHT22;5929;51.906;7.674;2022-07-04T01:30:58;16.20;99.90
11744;DHT22;5929;51.906;7.674;2022-07-04T01:33:25;16.20;99.90
11744;DHT22;5929;51.906;7.674;2022-07-04T01:35:52;16.20;99.90
11744;DHT22;5929;51.906;7.674;2022-07-04T01:38:20;16.10;99.90
11744;DHT22;5929;51.906;7.674;2022-07-04T01:40:47;16.00;99.90
11744;DHT22;5929;51.906;7.674;2022-07-04T01:43:14;16.10;99.90
11744;DHT22;5929;51.906;7.674;2022-07-04T01:45:41;16.00;99.90
11744;DHT22;5929;51.906;7.674;2022-07-04T01:48:10;16.00;99.90
11744;DHT22;5929;51.906;7.674;2022-07-04T01:50:37;16.00;99.90
11744;DHT22;5929;51.906;7.674;2022-07-04T01:53:04;16.00;99.90
11744;DHT22;5929;51.906;7.674;2022-07-04T01:55:33;15.90;99.90
11744;DHT22;5929;51.906;7.674;2022-07-04T01:58:00;15.90;99.90
11744;DHT22;5929;51.906;7.674;2022-07-04T02:00:27;15.90;99.90
11744;DHT22;5929;51.906;7.674;2022-07-04T02:03:11;15.90;99.90
11744;DHT22;5929;51.906;7.674;2022-07-04T02:05:38;15.90;99.90
11744;DHT22;5929;51.906;7.674;2022-07-04T02:08:06;15.70;99.90
11744;DHT22;5929;51.906;7.674;2022-07-04T02:10:35;15.70;99.90
11744;DHT22;5929;51.906;7.674;2022-07-04T02:13:02;15.60;99.90
11744;DHT22;5929;51.906;7.674;2022-07-04T02:15:30;15.60;99.90
11744;DHT22;5929;51.906;7.674;2022-07-04T02:18:00;15.60;99.90
11744;DHT22;5929;51.906;7.674;2022-07-04T02:20:28;15.60;99.90
11744;DHT22;5929;51.906;7.674;2022-07-04T02:22:55;15.70;99.90
11744;DHT22;5929;51.906;7.674;2022-07-04T02:25:22;15.60;99.90
11744;DHT22;5929;51.906;7.674;2022-07-04T02:27:50;15.60;99.90
11744;DHT22;5929;51.906;7.674;2022-07-04T02:30:17;15.60;99.90
11744;DHT22;5929;51.906;7.674;2022-07-04T02:32:44;15.60;99.90
11744;DHT22;5929;51.906;7.674;2022-07-04T02:35:11;15.50;99.90
11744;DHT22;5929;51.906;7.674;2022-07-04T02:37:38;15.50;99.90
11744;DHT22;5929;51.906;7.674;2022-07-04T02:40:06;15.40;99.90
11744;DHT22;5929;51.906;7.674;2022-07-04T02:42:34;15.30;99.90
11744;DHT22;5929;51.906;7.674;2022-07-04T02:45:03;15.30;99.90
11744;DHT22;5929;51.906;7.674;2022-07-04T02:47:30;15.30;99.90
11744;DHT22;5929;51.906;7.674;2022-07-04T02:49:57;15.30;99.90
11744;DHT22;5929;51.906;7.674;2022-07-04T02:52:27;15.00;99.90
11744;DHT22;5929;51.906;7.674;2022-07-04T02:54:54;14.80;99.90
11744;DHT22;5929;51.906;7.674;2022-07-04T02:57:21;14.70;99.90
11744;DHT22;5929;51.906;7.674;2022-07-04T02:59:48;14.60;99.90
11744;DHT22;5929;51.906;7.674;2022-07-04T03:02:19;14.60;99.90
11744;DHT22;5929;51.906;7.674;2022-07-04T03:04:45;14.70;99.90
11744;DHT22;5929;51.906;7.674;2022-07-04T03:07:12;14.80;99.90
11744;DHT22;5929;51.906;7.674;2022-07-04T03:09:39;14.90;99.90
11744;DHT22;5929;51.906;7.674;2022-07-04T03:12:07;14.90;99.90
11744;DHT22;5929;51.906;7.674;2022-07-04T03:14:34;14.90;99.90
11744;DHT22;5929;51.906;7.674;2022-07-04T03:17:01;14.80;99.90
11744;DHT22;5929;51.906;7.674;2022-07-04T03:19:29;14.80;99.90
11744;DHT22;5929;51.906;7.674;2022-07-04T03:21:56;14.70;99.90
11744;DHT22;5929;51.906;7.674;2022-07-04T03:24:22;14.60;99.90
11744;DHT22;5929;51.906;7.674;2022-07-04T03:26:49;14.60;99.90
11744;DHT22;5929;51.906;7.674;2022-07-04T03:29:16;14.70;99.90
11744;DHT22;5929;51.906;7.674;2022-07-04T03:31:43;14.70;99.90
11744;DHT22;5929;51.906;7.674;2022-07-04T03:34:10;14.70;99.90
11744;DHT22;5929;51.906;7.674;2022-07-04T03:36:39;14.70;99.90
11744;DHT22;5929;51.906;7.674;2022-07-04T03:39:06;14.80;99.90
11744;DHT22;5929;51.906;7.674;2022-07-04T03:41:32;14.80;99.90
11744;DHT22;5929;51.906;7.674;2022-07-04T03:43:59;14.70;99.90
11744;DHT22;5929;51.906;7.674;2022-07-04T03:46:26;14.70;99.90
11744;DHT22;5929;51.906;7.674;2022-07-04T03:48:53;14.70;99.90
11744;DHT22;5929;51.906;7.674;2022-07-04T03:51:21;14.70;99.90
11744;DHT22;5929;51.906;7.674;2022-07-04T03:53:50;14.60;99.90
11744;DHT22;5929;51.906;7.674;2022-07-04T03:56:17;14.50;99.90
11744;DHT22;5929;51.906;7.674;2022-07-04T03:58:44;14.50;99.90
11744;DHT22;5929;51.906;7.674;2022-07-04T04:01:18;14.60;99.90
11744;DHT22;5929;51.906;7.674;2022-07-04T04:03:45;14.60;99.90
11744;DHT22;5929;51.906;7.674;2022-07-04T04:06:29;14.70;99.90
11744;DHT22;5929;51.906;7.674;2022-07-04T04:08:58;14.70;99.90
11744;DHT22;5929;51.906;7.674;2022-07-04T04:11:24;14.70;99.90
11744;DHT22;5929;51.906;7.674;2022-07-04T04:13:51;14.70;99.90
11744;DHT22;5929;51.906;7.674;2022-07-04T04:16:18;14.70;99.90
11744;DHT22;5929;51.906;7.674;2022-07-04T04:18:45;14.70;99.90
11744;DHT22;5929;51.906;7.674;2022-07-04T04:21:12;14.70;99.90
11744;DHT22;5929;51.906;7.674;2022-07-04T04:23:39;14.70;99.90
11744;DHT22;5929;51.906;7.674;2022-07-04T04:26:09;14.70;99.90
11744;DHT22;5929;51.906;7.674;2022-07-04T04:28:36;14.70;99.90
11744;DHT22;5929;51.906;7.674;2022-07-04T04:31:06;14.80;99.90
11744;DHT22;5929;51.906;7.674;2022-07-04T04:33:34;14.80;99.90
11744;DHT22;5929;51.906;7.674;2022-07-04T04:36:01;14.80;99.90
11744;DHT22;5929;51.906;7.674;2022-07-04T04:38:28;14.80;99.90
11744;DHT22;5929;51.906;7.674;2022-07-04T04:40:55;14.80;99.90
11744;DHT22;5929;51.906;7.674;2022-07-04T04:43:23;14.80;99.90
11744;DHT22;5929;51.906;7.674;2022-07-04T04:45:50;14.80;99.90
11744;DHT22;5929;51.906;7.674;2022-07-04T04:48:17;14.80;99.90
11744;DHT22;5929;51.906;7.674;2022-07-04T04:50:44;14.80;99.90
11744;DHT22;5929;51.906;7.674;2022-07-04T04:53:11;14.80;99.90
11744;DHT22;5929;51.906;7.674;2022-07-04T04:55:38;14.70;99.90
11744;DHT22;5929;51.906;7.674;2022-07-04T04:58:05;14.80;99.90
11744;DHT22;5929;51.906;7.674;2022-07-04T05:00:33;14.80;99.90
11744;DHT22;5929;51.906;7.674;2022-07-04T05:03:00;14.80;99.90
11744;DHT22;5929;51.906;7.674;2022-07-04T05:05:27;14.90;99.90
11744;DHT22;5929;51.906;7.674;2022-07-04T05:07:54;15.00;99.90
11744;DHT22;5929;51.906;7.674;2022-07-04T05:10:21;15.00;99.90
11744;DHT22;5929;51.906;7.674;2022-07-04T05:12:48;14.90;99.90
11744;DHT22;5929;51.906;7.674;2022-07-04T05:15:15;14.90;99.90
11744;DHT22;5929;51.906;7.674;2022-07-04T05:17:43;14.90;99.90
11744;DHT22;5929;51.906;7.674;2022-07-04T05:20:11;15.00;99.90
11744;DHT22;5929;51.906;7.674;2022-07-04T05:22:38;15.00;99.90
11744;DHT22;5929;51.906;7.674;2022-07-04T05:25:06;15.00;99.90
11744;DHT22;5929;51.906;7.674;2022-07-04T05:27:33;15.00;99.90
11744;DHT22;5929;51.906;7.674;2022-07-04T05:29:59;15.00;99.90
11744;DHT22;5929;51.906;7.674;2022-07-04T05:32:27;15.00;99.90
11744;DHT22;5929;51.906;7.674;2022-07-04T05:34:55;15.10;99.90
11744;DHT22;5929;51.906;7.674;2022-07-04T05:37:23;15.10;99.90
11744;DHT22;5929;51.906;7.674;2022-07-04T05:39:51;15.20;99.90
11744;DHT22;5929;51.906;7.674;2022-07-04T05:42:18;15.20;99.90
11744;DHT22;5929;51.906;7.674;2022-07-04T05:44:44;15.30;99.90
11744;DHT22;5929;51.906;7.674;2022-07-04T05:47:11;15.30;99.90
11744;DHT22;5929;51.906;7.674;2022-07-04T05:49:38;15.30;99.90
11744;DHT22;5929;51.906;7.674;2022-07-04T05:52:07;15.40;99.90
11744;DHT22;5929;51.906;7.674;2022-07-04T05:54:33;15.40;99.90
11744;DHT22;5929;51.906;7.674;2022-07-04T05:57:00;15.50;99.90
11744;DHT22;5929;51.906;7.674;2022-07-04T05:59:27;15.50;99.90
11744;DHT22;5929;51.906;7.674;2022-07-04T06:01:55;15.60;99.90
11744;DHT22;5929;51.906;7.674;2022-07-04T06:04:21;15.60;99.90
11744;DHT22;5929;51.906;7.674;2022-07-04T06:06:48;15.70;99.90
11744;DHT22;5929;51.906;7.674;2022-07-04T06:09:16;15.80;99.90
11744;DHT22;5929;51.906;7.674;2022-07-04T06:11:43;15.80;99.90
11744;DHT22;5929;51.906;7.674;2022-07-04T06:14:10;15.90;99.90
11744;DHT22;5929;51.906;7.674;2022-07-04T06:16:37;15.90;99.90
11744;DHT22;5929;51.906;7.674;2022-07-04T06:19:04;16.00;99.90
11744;DHT22;5929;51.906;7.674;2022-07-04T06:21:31;16.10;99.90
11744;DHT22;5929;51.906;7.674;2022-07-04T06:23:58;16.10;99.90
11744;DHT22;5929;51.906;7.674;2022-07-04T06:26:26;16.20;99.90
11744;DHT22;5929;51.906;7.674;2022-07-04T06:28:53;16.20;99.90
11744;DHT22;5929;51.906;7.674;2022-07-04T06:31:20;16.30;99.90
11744;DHT22;5929;51.906;7.674;2022-07-04T06:33:48;16.30;99.90
11744;DHT22;5929;51.906;7.674;2022-07-04T06:36:32;16.40;99.90
11744;DHT22;5929;51.906;7.674;2022-07-04T06:38:59;16.50;99.90
11744;DHT22;5929;51.906;7.674;2022-07-04T06:41:28;16.60;99.90
11744;DHT22;5929;51.906;7.674;2022-07-04T06:43:54;16.50;99.90
11744;DHT22;5929;51.906;7.674;2022-07-04T06:46:21;16.60;99.90
11744;DHT22;5929;51.906;7.674;2022-07-04T06:48:48;16.60;99.90
11744;DHT22;5929;51.906;7.674;2022-07-04T06:51:15;16.70;99.90
11744;DHT22;5929;51.906;7.674;2022-07-04T06:53:42;16.70;99.90
11744;DHT22;5929;51.906;7.674;2022-07-04T06:56:11;16.70;99.90
11744;DHT22;5929;51.906;7.674;2022-07-04T06:58:39;16.90;99.90
11744;DHT22;5929;51.906;7.674;2022-07-04T07:01:06;16.90;99.90
11744;DHT22;5929;51.906;7.674;2022-07-04T07:03:33;16.90;99.90
11744;DHT22;5929;51.906;7.674;2022-07-04T07:05:59;17.00;99.90
11744;DHT22;5929;51.906;7.674;2022-07-04T07:08:28;17.10;99.90
11744;DHT22;5929;51.906;7.674;2022-07-04T07:10:56;17.10;99.90
11744;DHT22;5929;51.906;7.674;2022-07-04T07:13:25;17.20;99.90
11744;DHT22;5929;51.906;7.674;2022-07-04T07:15:53;17.20;99.90
11744;DHT22;5929;51.906;7.674;2022-07-04T07:18:20;17.20;99.90
11744;DHT22;5929;51.906;7.674;2022-07-04T07:20:47;17.20;99.90
11744;DHT22;5929;51.906;7.674;2022-07-04T07:23:14;17.20;99.90
11744;DHT22;5929;51.906;7.674;2022-07-04T07:25:41;17.30;99.90
11744;DHT22;5929;51.906;7.674;2022-07-04T07:28:08;17.40;99.90
11744;DHT22;5929;51.906;7.674;2022-07-04T07:30:34;17.40;99.90
11744;DHT22;5929;51.906;7.674;2022-07-04T07:33:03;17.50;99.90
11744;DHT22;5929;51.906;7.674;2022-07-04T07:35:30;17.50;99.90
11744;DHT22;5929;51.906;7.674;2022-07-04T07:37:56;17.50;99.90
11744;DHT22;5929;51.906;7.674;2022-07-04T07:40:23;17.60;99.90
11744;DHT22;5929;51.906;7.674;2022-07-04T07:42:50;17.60;99.90
11744;DHT22;5929;51.906;7.674;2022-07-04T07:45:19;17.70;99.90
11744;DHT22;5929;51.906;7.674;2022-07-04T07:47:46;17.80;99.90
11744;DHT22;5929;51.906;7.674;2022-07-04T07:50:14;17.90;99.90
11744;DHT22;5929;51.906;7.674;2022-07-04T07:52:41;17.90;99.90
11744;DHT22;5929;51.906;7.674;2022-07-04T07:55:08;17.90;99.90
11744;DHT22;5929;51.906;7.674;2022-07-04T07:57:35;18.10;99.90
11744;DHT22;5929;51.906;7.674;2022-07-04T08:00:03;18.10;99.90
11744;DHT22;5929;51.906;7.674;2022-07-04T08:02:31;18.10;99.90
11744;DHT22;5929;51.906;7.674;2022-07-04T08:05:16;18.10;99.90
11744;DHT22;5929;51.906;7.674;2022-07-04T08:07:42;18.20;99.80
11744;DHT22;5929;51.906;7.674;2022-07-04T08:10:09;18.20;99.40
11744;DHT22;5929;51.906;7.674;2022-07-04T08:12:36;18.30;98.80
11744;DHT22;5929;51.906;7.674;2022-07-04T08:15:04;18.30;99.50
11744;DHT22;5929;51.906;7.674;2022-07-04T08:17:31;18.30;98.70
11744;DHT22;5929;51.906;7.674;2022-07-04T08:19:58;18.30;99.10
11744;DHT22;5929;51.906;7.674;2022-07-04T08:22:27;18.40;98.00
11744;DHT22;5929;51.906;7.674;2022-07-04T08:24:54;18.40;98.60
11744;DHT22;5929;51.906;7.674;2022-07-04T08:27:20;18.50;97.90
11744;DHT22;5929;51.906;7.674;2022-07-04T08:29:49;18.50;97.70
11744;DHT22;5929;51.906;7.674;2022-07-04T08:32:16;18.50;97.80
11744;DHT22;5929;51.906;7.674;2022-07-04T08:34:44;18.50;97.50
11744;DHT22;5929;51.906;7.674;2022-07-04T08:37:12;18.50;97.20
11744;DHT22;5929;51.906;7.674;2022-07-04T08:39:42;18.60;97.70
11744;DHT22;5929;51.906;7.674;2022-07-04T08:42:15;18.60;97.10
11744;DHT22;5929;51.906;7.674;2022-07-04T08:44:47;18.70;97.20
11744;DHT22;5929;51.906;7.674;2022-07-04T08:47:17;18.90;97.60
11744;DHT22;5929;51.906;7.674;2022-07-04T08:49:48;18.90;96.90
11744;DHT22;5929;51.906;7.674;2022-07-04T08:52:23;19.00;96.70
11744;DHT22;5929;51.906;7.674;2022-07-04T08:54:56;19.00;96.90
11744;DHT22;5929;51.906;7.674;2022-07-04T08:57:41;18.90;96.90
11744;DHT22;5929;51.906;7.674;2022-07-04T09:00:25;18.90;97.30
11744;DHT22;5929;51.906;7.674;2022-07-04T09:02:52;19.10;96.40
11744;DHT22;5929;51.906;7.674;2022-07-04T09:05:20;19.20;94.90
11744;DHT22;5929;51.906;7.674;2022-07-04T09:07:47;19.30;94.30
11744;DHT22;5929;51.906;7.674;2022-07-04T09:10:16;19.30;94.90
11744;DHT22;5929;51.906;7.674;2022-07-04T09:12:43;19.40;94.90
11744;DHT22;5929;51.906;7.674;2022-07-04T09:15:10;19.40;93.80
11744;DHT22;5929;51.906;7.674;2022-07-04T09:17:37;19.60;93.50
11744;DHT22;5929;51.906;7.674;2022-07-04T09:20:12;19.70;93.30
11744;DHT22;5929;51.906;7.674;2022-07-04T09:22:39;19.80;93.10
11744;DHT22;5929;51.906;7.674;2022-07-04T09:25:06;19.90;92.80
11744;DHT22;5929;51.906;7.674;2022-07-04T09:27:36;19.90;92.00
11744;DHT22;5929;51.906;7.674;2022-07-04T09:30:04;19.90;91.80
11744;DHT22;5929;51.906;7.674;2022-07-04T09:32:36;19.90;91.80
11744;DHT22;5929;51.906;7.674;2022-07-04T09:35:04;20.00;92.40
11744;DHT22;5929;51.906;7.674;2022-07-04T09:37:36;20.20;91.90
11744;DHT22;5929;51.906;7.674;2022-07-04T09:40:06;20.30;91.60
11744;DHT22;5929;51.906;7.674;2022-07-04T09:42:39;20.30;91.10
11744;DHT22;5929;51.906;7.674;2022-07-04T09:45:08;20.40;90.90
11744;DHT22;5929;51.906;7.674;2022-07-04T09:47:37;20.40;90.90
11744;DHT22;5929;51.906;7.674;2022-07-04T09:50:05;20.30;90.50
11744;DHT22;5929;51.906;7.674;2022-07-04T09:52:47;20.40;90.60
11744;DHT22;5929;51.906;7.674;2022-07-04T09:55:24;20.60;91.00
11744;DHT22;5929;51.906;7.674;2022-07-04T09:57:53;20.60;90.00
11744;DHT22;5929;51.906;7.674;2022-07-04T10:00:22;20.70;90.00
11744;DHT22;5929;51.906;7.674;2022-07-04T10:02:51;20.80;90.00
11744;DHT22;5929;51.906;7.674;2022-07-04T10:05:20;20.70;89.70
11744;DHT22;5929;51.906;7.674;2022-07-04T10:07:48;20.70;90.10
11744;DHT22;5929;51.906;7.674;2022-07-04T10:10:26;20.80;90.00
11744;DHT22;5929;51.906;7.674;2022-07-04T10:12:56;21.00;88.50
11744;DHT22;5929;51.906;7.674;2022-07-04T10:15:23;21.00;87.80
11744;DHT22;5929;51.906;7.674;2022-07-04T10:17:50;21.00;88.00
11744;DHT22;5929;51.906;7.674;2022-07-04T10:20:17;21.10;86.90
11744;DHT22;5929;51.906;7.674;2022-07-04T10:22:44;21.30;88.50
11744;DHT22;5929;51.906;7.674;2022-07-04T10:25:11;21.40;88.90
11744;DHT22;5929;51.906;7.674;2022-07-04T10:27:39;21.50;88.90
11744;DHT22;5929;51.906;7.674;2022-07-04T10:30:11;21.40;84.30
11744;DHT22;5929;51.906;7.674;2022-07-04T10:32:39;21.50;84.30
11744;DHT22;5929;51.906;7.674;2022-07-04T10:35:13;21.50;83.50
11744;DHT22;5929;51.906;7.674;2022-07-04T10:38:02;21.90;85.70
11744;DHT22;5929;51.906;7.674;2022-07-04T10:40:43;22.30;83.60
11744;DHT22;5929;51.906;7.674;2022-07-04T10:46:34;22.40;82.90
11744;DHT22;5929;51.906;7.674;2022-07-04T10:49:05;22.20;82.30
11744;DHT22;5929;51.906;7.674;2022-07-04T10:51:40;22.10;81.60
11744;DHT22;5929;51.906;7.674;2022-07-04T10:54:11;22.10;82.60
11744;DHT22;5929;51.906;7.674;2022-07-04T10:56:43;22.00;80.00
11744;DHT22;5929;51.906;7.674;2022-07-04T10:59:12;22.10;81.10
11744;DHT22;5929;51.906;7.674;2022-07-04T11:01:50;22.40;80.50
11744;DHT22;5929;51.906;7.674;2022-07-04T11:04:46;22.90;82.40
11744;DHT22;5929;51.906;7.674;2022-07-04T11:07:13;23.10;77.50
11744;DHT22;5929;51.906;7.674;2022-07-04T11:09:43;22.90;76.90
11744;DHT22;5929;51.906;7.674;2022-07-04T11:12:10;22.80;77.60
11744;DHT22;5929;51.906;7.674;2022-07-04T11:14:41;22.90;77.60
11744;DHT22;5929;51.906;7.674;2022-07-04T11:17:11;23.00;76.00
11744;DHT22;5929;51.906;7.674;2022-07-04T11:19:39;23.20;75.30
11744;DHT22;5929;51.906;7.674;2022-07-04T11:22:08;23.60;75.60
11744;DHT22;5929;51.906;7.674;2022-07-04T11:24:36;23.70;72.90
11744;DHT22;5929;51.906;7.674;2022-07-04T11:27:06;23.60;74.30
11744;DHT22;5929;51.906;7.674;2022-07-04T11:29:33;23.60;74.20
11744;DHT22;5929;51.906;7.674;2022-07-04T11:32:01;23.80;74.70
11744;DHT22;5929;51.906;7.674;2022-07-04T11:34:32;24.80;73.20
11744;DHT22;5929;51.906;7.674;2022-07-04T11:37:01;25.80;69.80
11744;DHT22;5929;51.906;7.674;2022-07-04T11:39:28;26.20;66.00
11744;DHT22;5929;51.906;7.674;2022-07-04T11:41:55;26.10;65.60
11744;DHT22;5929;51.906;7.674;2022-07-04T11:44:43;26.10;65.60
11744;DHT22;5929;51.906;7.674;2022-07-04T11:47:37;25.90;64.90
11744;DHT22;5929;51.906;7.674;2022-07-04T11:50:08;25.00;66.40
11744;DHT22;5929;51.906;7.674;2022-07-04T11:52:43;24.50;66.60
11744;DHT22;5929;51.906;7.674;2022-07-04T11:55:11;24.30;67.50
11744;DHT22;5929;51.906;7.674;2022-07-04T11:57:40;23.80;69.30
11744;DHT22;5929;51.906;7.674;2022-07-04T12:00:09;23.60;69.90
11744;DHT22;5929;51.906;7.674;2022-07-04T12:02:36;24.40;69.60
11744;DHT22;5929;51.906;7.674;2022-07-04T12:05:07;25.20;68.10
11744;DHT22;5929;51.906;7.674;2022-07-04T12:07:38;25.70;67.50
11744;DHT22;5929;51.906;7.674;2022-07-04T12:10:09;25.40;67.60
11744;DHT22;5929;51.906;7.674;2022-07-04T12:12:51;24.80;69.10
11744;DHT22;5929;51.906;7.674;2022-07-04T12:15:19;24.30;70.00
11744;DHT22;5929;51.906;7.674;2022-07-04T12:17:50;24.50;70.60
11744;DHT22;5929;51.906;7.674;2022-07-04T12:20:20;25.40;66.60
11744;DHT22;5929;51.906;7.674;2022-07-04T12:22:51;26.30;65.00
11744;DHT22;5929;51.906;7.674;2022-07-04T12:25:24;26.70;63.80
11744;DHT22;5929;51.906;7.674;2022-07-04T12:27:58;27.20;62.90
11744;DHT22;5929;51.906;7.674;2022-07-04T12:30:27;27.80;60.00
11744;DHT22;5929;51.906;7.674;2022-07-04T12:32:58;27.80;60.00
11744;DHT22;5929;51.906;7.674;2022-07-04T12:35:34;27.50;60.30
11744;DHT22;5929;51.906;7.674;2022-07-04T12:38:03;28.00;60.70
11744;DHT22;5929;51.906;7.674;2022-07-04T12:40:30;28.30;59.40
11744;DHT22;5929;51.906;7.674;2022-07-04T12:42:59;27.90;59.10
11744;DHT22;5929;51.906;7.674;2022-07-04T12:45:41;28.00;59.90
11744;DHT22;5929;51.906;7.674;2022-07-04T12:48:17;28.40;59.10
11744;DHT22;5929;51.906;7.674;2022-07-04T12:50:46;28.50;58.70
11744;DHT22;5929;51.906;7.674;2022-07-04T12:53:13;28.20;59.50
11744;DHT22;5929;51.906;7.674;2022-07-04T12:55:41;27.50;59.30
11744;DHT22;5929;51.906;7.674;2022-07-04T12:58:09;26.80;59.70
11744;DHT22;5929;51.906;7.674;2022-07-04T13:00:36;27.00;60.30
11744;DHT22;5929;51.906;7.674;2022-07-04T13:03:04;27.60;59.50
11744;DHT22;5929;51.906;7.674;2022-07-04T13:05:32;28.30;59.40
11744;DHT22;5929;51.906;7.674;2022-07-04T13:08:01;27.80;58.30
11744;DHT22;5929;51.906;7.674;2022-07-04T13:10:30;28.10;59.70
11744;DHT22;5929;51.906;7.674;2022-07-04T13:12:58;27.70;58.30
11744;DHT22;5929;51.906;7.674;2022-07-04T13:15:24;27.10;59.60
11744;DHT22;5929;51.906;7.674;2022-07-04T13:17:51;26.60;61.00
11744;DHT22;5929;51.906;7.674;2022-07-04T13:20:18;26.30;61.10
11744;DHT22;5929;51.906;7.674;2022-07-04T13:22:45;26.80;60.90
11744;DHT22;5929;51.906;7.674;2022-07-04T13:25:13;27.00;59.50
11744;DHT22;5929;51.906;7.674;2022-07-04T13:27:40;27.90;59.20
11744;DHT22;5929;51.906;7.674;2022-07-04T13:30:07;28.00;58.00
11744;DHT22;5929;51.906;7.674;2022-07-04T13:32:35;28.10;57.80
11744;DHT22;5929;51.906;7.674;2022-07-04T13:35:02;28.30;57.70
11744;DHT22;5929;51.906;7.674;2022-07-04T13:37:29;28.10;57.60
11744;DHT22;5929;51.906;7.674;2022-07-04T13:39:56;27.90;57.20
11744;DHT22;5929;51.906;7.674;2022-07-04T13:42:26;27.30;58.40
11744;DHT22;5929;51.906;7.674;2022-07-04T13:45:10;27.30;58.30
11744;DHT22;5929;51.906;7.674;2022-07-04T13:47:41;26.40;60.60
11744;DHT22;5929;51.906;7.674;2022-07-04T13:50:09;26.00;61.50
11744;DHT22;5929;51.906;7.674;2022-07-04T13:52:36;26.50;60.20
11744;DHT22;5929;51.906;7.674;2022-07-04T13:55:03;27.00;59.50
11744;DHT22;5929;51.906;7.674;2022-07-04T13:57:31;27.80;57.80
11744;DHT22;5929;51.906;7.674;2022-07-04T13:59:58;28.30;56.30
11744;DHT22;5929;51.906;7.674;2022-07-04T14:02:25;28.50;55.90
11744;DHT22;5929;51.906;7.674;2022-07-04T14:04:52;28.80;56.40
11744;DHT22;5929;51.906;7.674;2022-07-04T14:07:19;28.80;54.70
11744;DHT22;5929;51.906;7.674;2022-07-04T14:09:46;28.20;53.90
11744;DHT22;5929;51.906;7.674;2022-07-04T14:12:13;28.40;54.60
11744;DHT22;5929;51.906;7.674;2022-07-04T14:14:42;28.30;55.30
11744;DHT22;5929;51.906;7.674;2022-07-04T14:17:09;27.70;56.50
11744;DHT22;5929;51.906;7.674;2022-07-04T14:19:36;28.00;56.30
11744;DHT22;5929;51.906;7.674;2022-07-04T14:22:03;28.60;56.60
11744;DHT22;5929;51.906;7.674;2022-07-04T14:24:30;29.10;54.60
11744;DHT22;5929;51.906;7.674;2022-07-04T14:26:57;28.80;53.80
11744;DHT22;5929;51.906;7.674;2022-07-04T14:29:26;28.90;54.20
11744;DHT22;5929;51.906;7.674;2022-07-04T14:31:55;28.50;54.50
11744;DHT22;5929;51.906;7.674;2022-07-04T14:34:21;28.20;55.60
11744;DHT22;5929;51.906;7.674;2022-07-04T14:36:48;28.50;55.90
11744;DHT22;5929;51.906;7.674;2022-07-04T14:39:15;28.00;56.90
11744;DHT22;5929;51.906;7.674;2022-07-04T14:41:42;27.80;57.20
11744;DHT22;5929;51.906;7.674;2022-07-04T14:44:09;28.20;55.80
11744;DHT22;5929;51.906;7.674;2022-07-04T14:46:36;28.10;56.30
11744;DHT22;5929;51.906;7.674;2022-07-04T14:49:04;27.70;57.90
11744;DHT22;5929;51.906;7.674;2022-07-04T14:51:31;28.00;56.70
11744;DHT22;5929;51.906;7.674;2022-07-04T14:53:58;27.60;56.60
11744;DHT22;5929;51.906;7.674;2022-07-04T14:56:25;27.20;57.60
11744;DHT22;5929;51.906;7.674;2022-07-04T14:58:52;27.00;58.10
11744;DHT22;5929;51.906;7.674;2022-07-04T15:01:19;27.20;57.70
11744;DHT22;5929;51.906;7.674;2022-07-04T15:03:46;26.70;58.60
11744;DHT22;5929;51.906;7.674;2022-07-04T15:06:14;26.60;59.70
11744;DHT22;5929;51.906;7.674;2022-07-04T15:08:41;27.10;58.90
11744;DHT22;5929;51.906;7.674;2022-07-04T15:11:08;27.50;58.30
11744;DHT22;5929;51.906;7.674;2022-07-04T15:13:35;27.10;57.70
11744;DHT22;5929;51.906;7.674;2022-07-04T15:16:02;27.40;58.90
11744;DHT22;5929;51.906;7.674;2022-07-04T15:18:29;27.90;58.00
11744;DHT22;5929;51.906;7.674;2022-07-04T15:20:56;28.20;58.10
11744;DHT22;5929;51.906;7.674;2022-07-04T15:23:42;28.00;57.30
11744;DHT22;5929;51.906;7.674;2022-07-04T15:26:27;27.40;57.70
11744;DHT22;5929;51.906;7.674;2022-07-04T15:28:53;27.30;58.70
11744;DHT22;5929;51.906;7.674;2022-07-04T15:31:20;27.30;58.80
11744;DHT22;5929;51.906;7.674;2022-07-04T15:33:47;27.40;58.80
11744;DHT22;5929;51.906;7.674;2022-07-04T15:36:14;27.40;58.60
11744;DHT22;5929;51.906;7.674;2022-07-04T15:38:42;27.50;58.00
11744;DHT22;5929;51.906;7.674;2022-07-04T15:41:09;27.70;58.80
11744;DHT22;5929;51.906;7.674;2022-07-04T15:43:40;28.30;56.10
11744;DHT22;5929;51.906;7.674;2022-07-04T15:46:07;28.90;56.70
11744;DHT22;5929;51.906;7.674;2022-07-04T15:48:34;29.30;53.90
11744;DHT22;5929;51.906;7.674;2022-07-04T15:51:01;29.20;55.30
11744;DHT22;5929;51.906;7.674;2022-07-04T15:53:28;29.50;55.70
11744;DHT22;5929;51.906;7.674;2022-07-04T15:55:57;30.20;55.00
11744;DHT22;5929;51.906;7.674;2022-07-04T15:58:23;30.40;54.70